PWSweather.com
Personal Weather Stations
Station Observations
MAGOO
Kiefer, OK 74041

Kiefer, OK 74041

Lat: 35.9417305, Lon: -96.03782654

Elevation: 699

Station Type: WMR100N

Latest ConditionsUpdated 7:00:00 AM CDT Friday, Apr 29, 2016
Currently Today's Max Today's Min Today's Average
Temperature -5537.2°C 0.0°F-17.8°C 0.0°F-17.8°C 0.0°F-17.8°C
Dew Point -5537.2°C 0.0°F-17.8°C 0.0°F-17.8°C 0.0°F-17.8°C
Winds 7.0 mph NE11.3 kmh NE 8.8 mph ENE14.2 kmh ENE - 5.2 mph 8.4 kmh
Wind Gusts 12.1 mph19.5 kmh 15.2 mph24.5 kmh - -
Humidity - 0% 0% 0%
Pressure -338605.1 mb 0.00 in0.0 mb 0.00 in0.0 mb -
Hour Temp Dew Point Humidity Winds Wind Gusts Pressure Precip Precip Rate Daily Precip Total
07:00 AM -5537.2°C -5537.2°C - 7.0 mph NE11.3 kmh NE 12.1 mph19.5 kmh -338605.1 mb 0.00 in0.0 mm 0.00 in0.0 mm 0.00 in0.0 mm
06:55 AM -5537.2°C -5537.2°C - 5.2 mph NE8.4 kmh NE 8.1 mph13.0 kmh -338605.1 mb 0.00 in0.0 mm 0.00 in0.0 mm 0.00 in0.0 mm
06:50 AM -5537.2°C -5537.2°C - 7.0 mph NE11.3 kmh NE 9.8 mph15.8 kmh -338605.1 mb 0.00 in0.0 mm 0.00 in0.0 mm 0.00 in0.0 mm
06:45 AM -5537.2°C -5537.2°C - 7.4 mph NE11.9 kmh NE 10.1 mph16.3 kmh -338605.1 mb 0.00 in0.0 mm 0.00 in0.0 mm 0.00 in0.0 mm
06:40 AM -5537.2°C -5537.2°C - 7.5 mph NE12.1 kmh NE 12.3 mph19.8 kmh -338605.1 mb 0.00 in0.0 mm 0.00 in0.0 mm 0.00 in0.0 mm
06:35 AM -5537.2°C -5537.2°C - 7.4 mph NE11.9 kmh NE 10.5 mph16.9 kmh -338605.1 mb 0.00 in0.0 mm 0.00 in0.0 mm 0.00 in0.0 mm
06:30 AM -5537.2°C -5537.2°C - 7.5 mph NE12.1 kmh NE 14.3 mph23.0 kmh -338605.1 mb 0.00 in0.0 mm 0.00 in0.0 mm 0.00 in0.0 mm
06:25 AM -5537.2°C -5537.2°C - 6.5 mph ENE10.5 kmh ENE 10.1 mph16.3 kmh -338605.1 mb 0.00 in0.0 mm 0.00 in0.0 mm 0.00 in0.0 mm
06:20 AM -5537.2°C -5537.2°C - 6.8 mph NE10.9 kmh NE 10.1 mph16.3 kmh -338605.1 mb 0.00 in0.0 mm 0.00 in0.0 mm 0.00 in0.0 mm
06:15 AM -5537.2°C -5537.2°C - 5.3 mph NE8.5 kmh NE 12.5 mph20.1 kmh -338605.1 mb 0.00 in0.0 mm 0.00 in0.0 mm 0.00 in0.0 mm
06:10 AM -5537.2°C -5537.2°C - 6.2 mph NE10.0 kmh NE 10.5 mph16.9 kmh -338605.1 mb 0.00 in0.0 mm 0.00 in0.0 mm 0.00 in0.0 mm
06:05 AM -5537.2°C -5537.2°C - 7.6 mph NE12.2 kmh NE 11.0 mph17.7 kmh -338605.1 mb 0.00 in0.0 mm 0.00 in0.0 mm 0.00 in0.0 mm
06:00 AM -5537.2°C -5537.2°C - 8.2 mph NE13.2 kmh NE 15.2 mph24.5 kmh -338605.1 mb 0.00 in0.0 mm 0.00 in0.0 mm 0.00 in0.0 mm
05:55 AM -5537.2°C -5537.2°C - 5.7 mph NE9.2 kmh NE 9.8 mph15.8 kmh -338605.1 mb 0.00 in0.0 mm 0.00 in0.0 mm 0.00 in0.0 mm
05:50 AM -5537.2°C -5537.2°C - 4.9 mph E7.9 kmh E 9.8 mph15.8 kmh -338605.1 mb 0.00 in0.0 mm 0.00 in0.0 mm 0.00 in0.0 mm
05:45 AM -5537.2°C -5537.2°C - 4.4 mph E7.1 kmh E 7.6 mph12.2 kmh -338605.1 mb 0.00 in0.0 mm 0.00 in0.0 mm 0.00 in0.0 mm
05:40 AM -5537.2°C -5537.2°C - 4.8 mph E7.7 kmh E 7.6 mph12.2 kmh -338605.1 mb 0.00 in0.0 mm 0.00 in0.0 mm 0.00 in0.0 mm
05:35 AM -5537.2°C -5537.2°C - 4.6 mph E7.4 kmh E 8.5 mph13.7 kmh -338605.1 mb 0.00 in0.0 mm 0.00 in0.0 mm 0.00 in0.0 mm
05:30 AM -5537.2°C -5537.2°C - 6.3 mph ENE10.1 kmh ENE 8.7 mph14.0 kmh -338605.1 mb 0.00 in0.0 mm 0.00 in0.0 mm 0.00 in0.0 mm
05:25 AM -5537.2°C -5537.2°C - 8.3 mph ENE13.4 kmh ENE 12.5 mph20.1 kmh -338605.1 mb 0.00 in0.0 mm 0.00 in0.0 mm 0.00 in0.0 mm
05:20 AM -5537.2°C -5537.2°C - 8.8 mph ENE14.2 kmh ENE 12.5 mph20.1 kmh -338605.1 mb 0.00 in0.0 mm 0.00 in0.0 mm 0.00 in0.0 mm
05:15 AM -5537.2°C -5537.2°C - 8.2 mph ENE13.2 kmh ENE 12.1 mph19.5 kmh -338605.1 mb 0.00 in0.0 mm 0.00 in0.0 mm 0.00 in0.0 mm
05:10 AM -5537.2°C -5537.2°C - 7.0 mph NE11.3 kmh NE 12.3 mph19.8 kmh -338605.1 mb 0.00 in0.0 mm 0.00 in0.0 mm 0.00 in0.0 mm
05:05 AM -5537.2°C -5537.2°C - 6.2 mph NE10.0 kmh NE 8.5 mph13.7 kmh -338605.1 mb 0.00 in0.0 mm 0.00 in0.0 mm 0.00 in0.0 mm
05:00 AM -5537.2°C -5537.2°C - 4.1 mph NE6.6 kmh NE 10.3 mph16.6 kmh -338605.1 mb 0.00 in0.0 mm 0.00 in0.0 mm 0.00 in0.0 mm
04:55 AM -5537.2°C -5537.2°C - 5.0 mph N8.0 kmh N 10.3 mph16.6 kmh -338605.1 mb 0.00 in0.0 mm 0.00 in0.0 mm 0.00 in0.0 mm
04:50 AM -5537.2°C -5537.2°C - 6.2 mph N10.0 kmh N 10.7 mph17.2 kmh -338605.1 mb 0.00 in0.0 mm 0.00 in0.0 mm 0.00 in0.0 mm
04:45 AM -5537.2°C -5537.2°C - 5.8 mph NNE9.3 kmh NNE 11.0 mph17.7 kmh -338605.1 mb 0.00 in0.0 mm 0.00 in0.0 mm 0.00 in0.0 mm
04:40 AM -5537.2°C -5537.2°C - 5.1 mph N8.2 kmh N 7.8 mph12.6 kmh -338605.1 mb 0.00 in0.0 mm 0.00 in0.0 mm 0.00 in0.0 mm
04:35 AM -5537.2°C -5537.2°C - 4.4 mph N7.1 kmh N 6.3 mph10.1 kmh -338605.1 mb 0.00 in0.0 mm 0.00 in0.0 mm 0.00 in0.0 mm
04:30 AM -5537.2°C -5537.2°C - 5.0 mph N8.0 kmh N 6.9 mph11.1 kmh -338605.1 mb 0.00 in0.0 mm 0.00 in0.0 mm 0.00 in0.0 mm
04:25 AM -5537.2°C -5537.2°C - 6.3 mph N10.1 kmh N 10.3 mph16.6 kmh -338605.1 mb 0.00 in0.0 mm 0.00 in0.0 mm 0.00 in0.0 mm
04:20 AM -5537.2°C -5537.2°C - 5.9 mph NNE9.5 kmh NNE 10.5 mph16.9 kmh -338605.1 mb 0.00 in0.0 mm 0.00 in0.0 mm 0.00 in0.0 mm
04:15 AM -5537.2°C -5537.2°C - 5.8 mph NNE9.3 kmh NNE 8.7 mph14.0 kmh -338605.1 mb 0.00 in0.0 mm 0.00 in0.0 mm 0.00 in0.0 mm
04:10 AM -5537.2°C -5537.2°C - 7.1 mph NNE11.4 kmh NNE 11.0 mph17.7 kmh -338605.1 mb 0.00 in0.0 mm 0.00 in0.0 mm 0.00 in0.0 mm
04:05 AM -5537.2°C -5537.2°C - 6.1 mph N9.8 kmh N 13.0 mph20.9 kmh -338605.1 mb 0.00 in0.0 mm 0.00 in0.0 mm 0.00 in0.0 mm
04:00 AM -5537.2°C -5537.2°C - 4.6 mph NNE7.4 kmh NNE 7.4 mph11.9 kmh -338605.1 mb 0.00 in0.0 mm 0.00 in0.0 mm 0.00 in0.0 mm
03:55 AM -5537.2°C -5537.2°C - 4.4 mph N7.1 kmh N 8.1 mph13.0 kmh -338605.1 mb 0.00 in0.0 mm 0.00 in0.0 mm 0.00 in0.0 mm
03:50 AM -5537.2°C -5537.2°C - 4.8 mph N7.7 kmh N 10.3 mph16.6 kmh -338605.1 mb 0.00 in0.0 mm 0.00 in0.0 mm 0.00 in0.0 mm
03:45 AM -5537.2°C -5537.2°C - 4.9 mph N7.9 kmh N 9.8 mph15.8 kmh -338605.1 mb 0.00 in0.0 mm 0.00 in0.0 mm 0.00 in0.0 mm
03:40 AM -5537.2°C -5537.2°C - 6.0 mph N9.7 kmh N 10.7 mph17.2 kmh -338605.1 mb 0.00 in0.0 mm 0.00 in0.0 mm 0.00 in0.0 mm
03:35 AM -5537.2°C -5537.2°C - 6.2 mph N10.0 kmh N 9.8 mph15.8 kmh -338605.1 mb 0.00 in0.0 mm 0.00 in0.0 mm 0.00 in0.0 mm
03:30 AM -5537.2°C -5537.2°C - 4.1 mph N6.6 kmh N 7.2 mph11.6 kmh -338605.1 mb 0.00 in0.0 mm 0.00 in0.0 mm 0.00 in0.0 mm
03:25 AM -5537.2°C -5537.2°C - 4.0 mph N6.4 kmh N 6.9 mph11.1 kmh -338605.1 mb 0.00 in0.0 mm 0.00 in0.0 mm 0.00 in0.0 mm
03:20 AM -5537.2°C -5537.2°C - 3.7 mph N6.0 kmh N 4.9 mph7.9 kmh -338605.1 mb 0.00 in0.0 mm 0.00 in0.0 mm 0.00 in0.0 mm
03:15 AM -5537.2°C -5537.2°C - 3.7 mph N6.0 kmh N 6.0 mph9.7 kmh -338605.1 mb 0.00 in0.0 mm 0.00 in0.0 mm 0.00 in0.0 mm
03:10 AM -5537.2°C -5537.2°C - 3.9 mph NNE6.3 kmh NNE 7.6 mph12.2 kmh -338605.1 mb 0.00 in0.0 mm 0.00 in0.0 mm 0.00 in0.0 mm
03:05 AM -5537.2°C -5537.2°C - 5.3 mph NNE8.5 kmh NNE 8.5 mph13.7 kmh -338605.1 mb 0.00 in0.0 mm 0.00 in0.0 mm 0.00 in0.0 mm
03:00 AM -5537.2°C -5537.2°C - 4.9 mph NNE7.9 kmh NNE 9.6 mph15.4 kmh -338605.1 mb 0.00 in0.0 mm 0.00 in0.0 mm 0.00 in0.0 mm
02:55 AM -5537.2°C -5537.2°C - 6.1 mph NE9.8 kmh NE 9.4 mph15.1 kmh -338605.1 mb 0.00 in0.0 mm 0.00 in0.0 mm 0.00 in0.0 mm
02:50 AM -5537.2°C -5537.2°C - 5.6 mph NE9.0 kmh NE 8.9 mph14.3 kmh -338605.1 mb 0.00 in0.0 mm 0.00 in0.0 mm 0.00 in0.0 mm
02:45 AM -5537.2°C -5537.2°C - 5.4 mph NNE8.7 kmh NNE 9.6 mph15.4 kmh -338605.1 mb 0.00 in0.0 mm 0.00 in0.0 mm 0.00 in0.0 mm
02:40 AM -5537.2°C -5537.2°C - 4.8 mph NNE7.7 kmh NNE 7.8 mph12.6 kmh -338605.1 mb 0.00 in0.0 mm 0.00 in0.0 mm 0.00 in0.0 mm
02:35 AM -5537.2°C -5537.2°C - 4.6 mph NNE7.4 kmh NNE 7.6 mph12.2 kmh -338605.1 mb 0.00 in0.0 mm 0.00 in0.0 mm 0.00 in0.0 mm
02:30 AM -5537.2°C -5537.2°C - 5.0 mph NNE8.0 kmh NNE 6.7 mph10.8 kmh -338605.1 mb 0.00 in0.0 mm 0.00 in0.0 mm 0.00 in0.0 mm
02:25 AM -5537.2°C -5537.2°C - 4.1 mph NNE6.6 kmh NNE 8.9 mph14.3 kmh -338605.1 mb 0.00 in0.0 mm 0.00 in0.0 mm 0.00 in0.0 mm
02:20 AM -5537.2°C -5537.2°C - 4.3 mph NNE6.9 kmh NNE 6.5 mph10.5 kmh -338605.1 mb 0.00 in0.0 mm 0.00 in0.0 mm 0.00 in0.0 mm
02:15 AM -5537.2°C -5537.2°C - 4.3 mph NE6.9 kmh NE 6.7 mph10.8 kmh -338605.1 mb 0.00 in0.0 mm 0.00 in0.0 mm 0.00 in0.0 mm
02:10 AM -5537.2°C -5537.2°C - 3.9 mph NE6.3 kmh NE 7.2 mph11.6 kmh -338605.1 mb 0.00 in0.0 mm 0.00 in0.0 mm 0.00 in0.0 mm
02:05 AM -5537.2°C -5537.2°C - 3.2 mph NE5.1 kmh NE 5.6 mph9.0 kmh -338605.1 mb 0.00 in0.0 mm 0.00 in0.0 mm 0.00 in0.0 mm
02:00 AM -5537.2°C -5537.2°C - 3.1 mph NNE5.0 kmh NNE 4.9 mph7.9 kmh -338605.1 mb 0.00 in0.0 mm 0.00 in0.0 mm 0.00 in0.0 mm
01:55 AM -5537.2°C -5537.2°C - 3.2 mph NNE5.1 kmh NNE 6.3 mph10.1 kmh -338605.1 mb 0.00 in0.0 mm 0.00 in0.0 mm 0.00 in0.0 mm
01:50 AM -5537.2°C -5537.2°C - 4.1 mph NE6.6 kmh NE 5.8 mph9.3 kmh -338605.1 mb 0.00 in0.0 mm 0.00 in0.0 mm 0.00 in0.0 mm
01:45 AM -5537.2°C -5537.2°C - 4.1 mph NE6.6 kmh NE 6.3 mph10.1 kmh -338605.1 mb 0.00 in0.0 mm 0.00 in0.0 mm 0.00 in0.0 mm
01:40 AM -5537.2°C -5537.2°C - 3.4 mph NE5.5 kmh NE 6.7 mph10.8 kmh -338605.1 mb 0.00 in0.0 mm 0.00 in0.0 mm 0.00 in0.0 mm
01:35 AM -5537.2°C -5537.2°C - 2.9 mph NE4.7 kmh NE 5.8 mph9.3 kmh -338605.1 mb 0.00 in0.0 mm 0.00 in0.0 mm 0.00 in0.0 mm
01:30 AM -5537.2°C -5537.2°C - 4.2 mph NE6.8 kmh NE 6.5 mph10.5 kmh -338605.1 mb 0.00 in0.0 mm 0.00 in0.0 mm 0.00 in0.0 mm
01:25 AM -5537.2°C -5537.2°C - 3.4 mph NE5.5 kmh NE 6.0 mph9.7 kmh -338605.1 mb 0.00 in0.0 mm 0.00 in0.0 mm 0.00 in0.0 mm
01:20 AM -5537.2°C -5537.2°C - 3.6 mph NE5.8 kmh NE 5.4 mph8.7 kmh -338605.1 mb 0.00 in0.0 mm 0.00 in0.0 mm 0.00 in0.0 mm
01:15 AM -5537.2°C -5537.2°C - 4.8 mph NE7.7 kmh NE 6.5 mph10.5 kmh -338605.1 mb 0.00 in0.0 mm 0.00 in0.0 mm 0.00 in0.0 mm
01:10 AM -5537.2°C -5537.2°C - 4.0 mph NE6.4 kmh NE 6.3 mph10.1 kmh -338605.1 mb 0.00 in0.0 mm 0.00 in0.0 mm 0.00 in0.0 mm
01:05 AM -5537.2°C -5537.2°C - 4.4 mph NE7.1 kmh NE 6.0 mph9.7 kmh -338605.1 mb 0.00 in0.0 mm 0.00 in0.0 mm 0.00 in0.0 mm
01:00 AM -5537.2°C -5537.2°C - 3.5 mph ENE5.6 kmh ENE 7.2 mph11.6 kmh -338605.1 mb 0.00 in0.0 mm 0.00 in0.0 mm 0.00 in0.0 mm
12:55 AM -5537.2°C -5537.2°C - 4.2 mph NE6.8 kmh NE 6.0 mph9.7 kmh -338605.1 mb 0.00 in0.0 mm 0.00 in0.0 mm 0.00 in0.0 mm
12:50 AM -5537.2°C -5537.2°C - 4.8 mph NE7.7 kmh NE 8.5 mph13.7 kmh -338605.1 mb 0.00 in0.0 mm 0.00 in0.0 mm 0.00 in0.0 mm
12:45 AM -5537.2°C -5537.2°C - 4.4 mph NE7.1 kmh NE 6.0 mph9.7 kmh -338605.1 mb 0.00 in0.0 mm 0.00 in0.0 mm 0.00 in0.0 mm
12:40 AM -5537.2°C -5537.2°C - 4.6 mph NE7.4 kmh NE 7.4 mph11.9 kmh -338605.1 mb 0.00 in0.0 mm 0.00 in0.0 mm 0.00 in0.0 mm
12:35 AM -5537.2°C -5537.2°C - 4.9 mph NE7.9 kmh NE 7.6 mph12.2 kmh -338605.1 mb 0.00 in0.0 mm 0.00 in0.0 mm 0.00 in0.0 mm
12:30 AM -5537.2°C -5537.2°C - 5.5 mph NE8.9 kmh NE 7.8 mph12.6 kmh -338605.1 mb 0.00 in0.0 mm 0.00 in0.0 mm 0.00 in0.0 mm
12:25 AM -5537.2°C -5537.2°C - 4.9 mph NE7.9 kmh NE 6.9 mph11.1 kmh -338605.1 mb 0.00 in0.0 mm 0.00 in0.0 mm 0.00 in0.0 mm
12:20 AM -5537.2°C -5537.2°C - 4.8 mph NE7.7 kmh NE 8.5 mph13.7 kmh -338605.1 mb 0.00 in0.0 mm 0.00 in0.0 mm 0.00 in0.0 mm
12:15 AM -5537.2°C -5537.2°C - 4.8 mph NE7.7 kmh NE 6.5 mph10.5 kmh -338605.1 mb 0.00 in0.0 mm 0.00 in0.0 mm 0.00 in0.0 mm
12:10 AM -5537.2°C -5537.2°C - 4.7 mph NE7.6 kmh NE 7.6 mph12.2 kmh -338605.1 mb 0.00 in0.0 mm 0.00 in0.0 mm 0.00 in0.0 mm
12:05 AM -5537.2°C -5537.2°C - 4.1 mph NNE6.6 kmh NNE 5.4 mph8.7 kmh -338605.1 mb 0.00 in0.0 mm 0.00 in0.0 mm 0.00 in0.0 mm
12:00 AM -5537.2°C -5537.2°C - 4.6 mph NE7.4 kmh NE 7.4 mph11.9 kmh -338605.1 mb 0.00 in0.0 mm 0.00 in0.0 mm 0.00 in0.0 mm